Time;durP1;ratioP1;P1;durP2;ratioP2;P2;SDS_P1;SDS_P2;PMS_P1;PMS_P2;Temp;Humidity;BMP_temperature;BMP_pressure;BME280_temperature;BME280_humidity;BME280_pressure;Samples;Min_cycle;Max_cycle;Signal;HPM_P1;HPM_P2
2022/09/08 00:00:39;;;;;;;6.18;0.43;;;21.10;62.40;;;;;;5057672;28;20051;-53
2022/09/08 00:03:10;;;;;;;0.82;0.17;;;21.10;62.50;;;;;;5055954;28;20596;-52
2022/09/08 00:05:42;;;;;;;0.75;0.10;;;21.10;62.50;;;;;;5054327;28;20091;-52
2022/09/08 00:08:10;;;;;;;1.55;0.20;;;21.00;62.40;;;;;;5044008;28;20049;-58
2022/09/08 00:10:39;;;;;;;1.90;0.10;;;21.00;62.50;;;;;;5050721;28;20057;-54
2022/09/08 00:13:07;;;;;;;1.95;0.00;;;21.00;62.50;;;;;;5053084;28;20563;-54
2022/09/08 00:15:36;;;;;;;2.28;0.20;;;21.00;62.60;;;;;;5038157;28;20059;-54
2022/09/08 00:18:03;;;;;;;1.45;0.03;;;21.00;62.60;;;;;;5044371;28;20501;-53
2022/09/08 00:20:30;;;;;;;0.65;0.00;;;21.00;62.60;;;;;;5050386;28;20047;-54
2022/09/08 00:22:57;;;;;;;2.42;0.10;;;21.00;62.60;;;;;;5043790;28;20120;-55
2022/09/08 00:25:26;;;;;;;0.30;0.05;;;21.00;62.70;;;;;;5043924;28;20040;-56
2022/09/08 00:27:54;;;;;;;0.85;0.00;;;21.00;62.60;;;;;;5051931;28;20087;-51
2022/09/08 00:30:21;;;;;;;1.52;0.45;;;21.00;62.60;;;;;;5050932;28;20051;-55
2022/09/08 00:32:48;;;;;;;1.08;0.10;;;21.00;62.20;;;;;;5054258;28;20588;-55
2022/09/08 00:35:18;;;;;;;2.35;0.22;;;21.00;62.70;;;;;;5043859;28;20044;-57
2022/09/08 00:37:47;;;;;;;5.63;0.17;;;21.00;62.70;;;;;;5043789;28;20033;-54
2022/09/08 00:40:15;;;;;;;1.52;0.10;;;20.90;62.70;;;;;;5049064;28;20586;-51
2022/09/08 00:42:42;;;;;;;1.77;0.10;;;20.90;62.70;;;;;;5056475;28;20115;-55
2022/09/08 00:45:12;;;;;;;1.48;0.10;;;20.90;62.80;;;;;;5055717;28;20041;-56
2022/09/08 00:47:44;;;;;;;0.20;0.10;;;20.90;62.90;;;;;;5049579;28;20045;-54
2022/09/08 00:50:17;;;;;;;0.40;0.10;;;20.90;62.80;;;;;;5051686;28;20902;-55
2022/09/08 00:52:50;;;;;;;2.58;0.13;;;20.90;62.80;;;;;;5062948;28;20572;-54
2022/09/08 00:55:18;;;;;;;0.50;0.00;;;20.90;62.90;;;;;;5057179;28;20060;-57
2022/09/08 00:57:46;;;;;;;0.88;0.13;;;20.80;62.80;;;;;;5042504;28;20158;-54
2022/09/08 01:00:17;;;;;;;3.60;0.20;;;20.80;62.80;;;;;;5050968;28;20056;-55
2022/09/08 01:02:45;;;;;;;3.00;0.30;;;20.80;62.90;;;;;;5049069;28;20041;-55
2022/09/08 01:05:16;;;;;;;2.13;0.05;;;20.80;63.20;;;;;;5054881;28;20536;-55
2022/09/08 01:13:40;;;;;;;1.33;0.00;;;21.30;62.80;;;;;;5050814;28;20075;-55
2022/09/08 01:16:09;;;;;;;0.82;0.45;;;21.50;62.50;;;;;;5051132;28;20437;-55
2022/09/08 01:18:37;;;;;;;0.98;0.10;;;21.60;62.20;;;;;;5056573;28;20057;-55
2022/09/08 01:21:16;;;;;;;0.90;0.00;;;21.80;62.00;;;;;;5056637;28;20048;-54
2022/09/08 01:24:13;;;;;;;0.60;0.08;;;21.90;61.70;;;;;;5046494;28;20037;-55
2022/09/08 01:26:51;;;;;;;0.10;0.00;;;22.10;61.40;;;;;;5056551;28;20045;-56
2022/09/08 01:29:21;;;;;;;0.60;0.00;;;22.20;61.10;;;;;;5032457;28;20056;-56
2022/09/08 01:31:51;;;;;;;0.10;0.00;;;22.30;60.90;;;;;;5055057;28;20048;-56
2022/09/08 01:34:18;;;;;;;3.35;0.00;;;22.40;60.70;;;;;;5055010;28;20043;-54
2022/09/08 01:36:45;;;;;;;0.00;0.00;;;22.60;60.50;;;;;;5055652;28;20049;-55
2022/09/08 01:39:12;;;;;;;0.10;0.05;;;22.60;60.30;;;;;;5049853;28;20068;-54
2022/09/08 01:41:40;;;;;;;0.77;0.10;;;22.70;60.10;;;;;;5051296;28;20037;-56
2022/09/08 01:44:07;;;;;;;1.35;0.20;;;22.80;59.90;;;;;;5048588;28;20047;-56
2022/09/08 01:46:35;;;;;;;0.30;0.00;;;22.90;59.70;;;;;;5054000;28;20048;-52
2022/09/08 01:49:02;;;;;;;1.63;0.10;;;23.00;59.50;;;;;;5049814;28;20123;-56
2022/09/08 01:51:29;;;;;;;0.68;0.10;;;23.00;59.30;;;;;;5048834;28;20056;-56
2022/09/08 01:53:56;;;;;;;0.00;0.00;;;23.20;59.20;;;;;;5048635;28;20044;-56
2022/09/08 01:56:23;;;;;;;1.13;0.10;;;23.20;59.00;;;;;;5049934;28;20061;-57
2022/09/08 01:58:50;;;;;;;0.30;0.05;;;23.30;58.80;;;;;;5050082;28;20037;-56
2022/09/08 02:01:17;;;;;;;0.73;0.00;;;23.30;58.60;;;;;;5051124;28;20789;-57
2022/09/08 02:03:46;;;;;;;1.10;0.00;;;23.40;58.50;;;;;;5055184;28;20555;-56
2022/09/08 02:06:13;;;;;;;3.63;0.00;;;23.50;58.40;;;;;;5049936;28;20033;-51
2022/09/08 02:08:40;;;;;;;0.10;0.00;;;23.50;58.20;;;;;;5048166;28;20048;-54
2022/09/08 02:11:07;;;;;;;1.45;0.05;;;23.50;58.00;;;;;;5049068;28;20116;-53
2022/09/08 02:13:34;;;;;;;1.63;0.10;;;23.60;57.90;;;;;;5048993;28;20758;-56
2022/09/08 02:16:04;;;;;;;0.90;0.00;;;23.70;57.90;;;;;;5050688;28;20409;-55
2022/09/08 02:18:32;;;;;;;2.22;0.00;;;23.70;57.70;;;;;;5047945;28;20183;-54
2022/09/08 02:21:07;;;;;;;1.23;0.00;;;23.70;57.60;;;;;;5052691;28;20037;-56
2022/09/08 02:23:34;;;;;;;1.33;0.10;;;23.80;57.50;;;;;;5049330;28;20064;-56
2022/09/08 02:26:02;;;;;;;0.98;0.10;;;23.80;57.30;;;;;;5051285;28;20033;-55
2022/09/08 02:28:29;;;;;;;0.05;0.00;;;23.90;57.30;;;;;;5055088;28;20076;-54
2022/09/08 02:31:00;;;;;;;0.20;0.00;;;23.90;57.20;;;;;;5049070;28;20041;-55
2022/09/08 02:33:28;;;;;;;2.80;0.00;;;23.90;57.00;;;;;;5053740;28;20496;-56
2022/09/08 02:35:55;;;;;;;0.77;0.30;;;23.90;56.90;;;;;;5054301;28;20064;-54
2022/09/08 02:38:24;;;;;;;0.40;0.40;;;24.00;56.90;;;;;;5036908;28;20502;-54
2022/09/08 02:40:52;;;;;;;0.15;0.00;;;24.00;56.80;;;;;;5048060;28;20047;-55
2022/09/08 02:43:20;;;;;;;0.10;0.00;;;24.00;56.70;;;;;;5050101;28;20120;-56
2022/09/08 02:45:47;;;;;;;0.95;0.40;;;24.10;56.60;;;;;;5049167;28;20552;-56
2022/09/08 02:48:14;;;;;;;0.25;0.00;;;24.10;56.50;;;;;;5050783;28;20088;-55
2022/09/08 02:50:41;;;;;;;0.55;0.00;;;24.10;56.40;;;;;;5032855;28;20509;-55
2022/09/08 02:53:09;;;;;;;1.25;0.10;;;24.20;56.40;;;;;;5050689;28;20521;-53
2022/09/08 02:55:39;;;;;;;0.20;0.03;;;24.20;56.30;;;;;;5053569;28;20136;-56
2022/09/08 02:58:07;;;;;;;0.88;0.88;;;24.20;56.30;;;;;;5055921;28;20059;-56
2022/09/08 03:00:34;;;;;;;0.50;0.00;;;24.20;56.30;;;;;;5048687;28;20041;-55
2022/09/08 03:03:02;;;;;;;0.43;0.10;;;24.30;56.20;;;;;;5031278;28;20123;-55
2022/09/08 03:05:30;;;;;;;0.80;0.00;;;24.30;56.10;;;;;;5052579;28;20089;-57
2022/09/08 03:07:57;;;;;;;0.30;0.00;;;24.30;56.00;;;;;;5030891;28;20052;-56
2022/09/08 03:10:24;;;;;;;1.25;0.00;;;24.30;56.00;;;;;;5047755;28;20047;-55
2022/09/08 03:12:54;;;;;;;0.00;0.00;;;24.30;55.90;;;;;;5055382;28;20619;-57
2022/09/08 03:15:23;;;;;;;0.70;0.00;;;24.40;55.80;;;;;;5047214;28;20118;-55
2022/09/08 03:17:51;;;;;;;0.00;0.00;;;24.40;56.30;;;;;;5049869;28;20033;-56
2022/09/08 03:20:19;;;;;;;0.52;0.00;;;24.40;55.70;;;;;;5047548;28;20556;-57
2022/09/08 03:22:46;;;;;;;0.80;0.10;;;24.40;55.60;;;;;;5047798;28;20065;-55
2022/09/08 03:25:13;;;;;;;4.43;0.00;;;24.40;55.60;;;;;;5026400;28;20041;-57
2022/09/08 03:27:41;;;;;;;0.30;0.00;;;24.40;55.70;;;;;;5047612;28;20037;-56
2022/09/08 03:30:12;;;;;;;0.98;0.32;;;24.40;55.50;;;;;;5022128;28;20061;-57
2022/09/08 03:32:41;;;;;;;0.00;0.00;;;24.50;55.40;;;;;;5047048;28;20102;-55
2022/09/08 03:35:09;;;;;;;0.17;0.00;;;24.40;55.40;;;;;;5049378;28;20048;-56
2022/09/08 03:37:38;;;;;;;1.02;0.00;;;24.40;55.40;;;;;;5050491;28;20044;-57
2022/09/08 03:40:07;;;;;;;0.47;0.08;;;24.50;55.40;;;;;;5021435;28;20428;-57
2022/09/08 03:42:34;;;;;;;0.10;0.00;;;24.50;55.30;;;;;;5053164;28;20049;-57
2022/09/08 03:45:02;;;;;;;0.50;0.50;;;24.50;55.30;;;;;;5050990;28;20579;-56
2022/09/08 03:47:30;;;;;;;1.98;0.45;;;24.50;55.30;;;;;;5036584;28;20052;-57
2022/09/08 03:49:58;;;;;;;0.10;0.00;;;24.50;55.30;;;;;;5047465;28;20493;-56
2022/09/08 03:52:25;;;;;;;0.00;0.00;;;24.50;55.20;;;;;;5048893;28;20052;-58
2022/09/08 03:54:53;;;;;;;0.00;0.00;;;24.50;55.20;;;;;;5047767;28;20470;-58
2022/09/08 03:57:23;;;;;;;1.05;0.10;;;24.60;55.20;;;;;;5047114;28;20049;-58
2022/09/08 03:59:51;;;;;;;0.00;0.00;;;24.50;55.10;;;;;;5046781;28;20138;-53
2022/09/08 04:02:19;;;;;;;1.67;0.10;;;24.60;55.10;;;;;;5037243;28;20116;-56
2022/09/08 04:04:50;;;;;;;0.20;0.00;;;24.60;55.10;;;;;;5048401;28;20645;-54
2022/09/08 04:07:18;;;;;;;0.45;0.17;;;24.60;55.10;;;;;;5056923;28;20683;-53
2022/09/08 04:09:45;;;;;;;0.15;0.00;;;24.60;55.10;;;;;;5044782;28;20048;-57
2022/09/08 04:12:14;;;;;;;0.05;0.00;;;24.60;55.10;;;;;;5046958;28;20558;-54
2022/09/08 04:14:41;;;;;;;1.45;0.03;;;24.60;55.00;;;;;;5034277;28;20080;-55
2022/09/08 04:17:09;;;;;;;0.10;0.00;;;24.60;54.90;;;;;;5050991;28;20446;-52
2022/09/08 04:19:37;;;;;;;3.05;0.20;;;24.60;54.90;;;;;;5047298;28;20647;-56
2022/09/08 04:22:06;;;;;;;0.10;0.05;;;24.60;54.80;;;;;;5043691;28;20116;-56
2022/09/08 04:24:34;;;;;;;0.52;0.00;;;24.60;54.70;;;;;;5047032;28;20045;-55
2022/09/08 04:27:01;;;;;;;4.05;0.03;;;24.60;54.70;;;;;;5050674;28;20041;-55
2022/09/08 04:29:28;;;;;;;1.60;0.00;;;24.60;54.70;;;;;;5047263;28;20113;-56
2022/09/08 04:31:55;;;;;;;0.82;0.03;;;24.60;54.70;;;;;;5042960;28;20041;-57
2022/09/08 04:34:22;;;;;;;3.95;0.00;;;24.60;54.70;;;;;;5044726;28;20073;-56
2022/09/08 04:36:49;;;;;;;3.17;0.00;;;24.60;54.70;;;;;;5052113;28;20036;-56
2022/09/08 04:39:19;;;;;;;5.13;0.00;;;24.60;54.60;;;;;;5047403;28;20040;-56
2022/09/08 04:41:47;;;;;;;0.43;0.00;;;24.60;54.60;;;;;;5045886;28;20047;-57
2022/09/08 04:44:14;;;;;;;3.15;0.30;;;24.60;54.50;;;;;;5052274;28;20119;-57
2022/09/08 04:46:41;;;;;;;4.70;0.00;;;24.70;54.50;;;;;;5053237;28;20465;-54
2022/09/08 04:49:08;;;;;;;0.63;0.00;;;24.60;54.40;;;;;;5049657;28;20065;-56
2022/09/08 04:51:35;;;;;;;15.90;0.15;;;24.70;54.40;;;;;;5052103;28;20606;-55
2022/09/08 04:54:03;;;;;;;1.35;0.00;;;24.70;54.40;;;;;;5053257;28;20043;-56
2022/09/08 04:56:31;;;;;;;0.93;0.05;;;24.70;54.40;;;;;;5048004;28;20060;-58
2022/09/08 04:59:00;;;;;;;0.55;0.55;;;24.70;54.30;;;;;;5049786;28;20037;-59
2022/09/08 05:01:29;;;;;;;1.45;0.10;;;24.70;54.30;;;;;;5049685;28;20131;-57
2022/09/08 05:03:59;;;;;;;1.05;0.00;;;24.70;54.30;;;;;;5049177;28;20079;-58
2022/09/08 05:06:27;;;;;;;1.65;0.10;;;24.70;54.30;;;;;;5049423;28;20413;-66
2022/09/08 05:08:56;;;;;;;0.22;0.22;;;24.70;54.40;;;;;;5054025;28;20466;-65
2022/09/08 05:11:24;;;;;;;0.05;0.00;;;24.70;54.60;;;;;;5051418;28;20436;-61
2022/09/08 05:13:53;;;;;;;0.85;0.13;;;24.70;54.80;;;;;;5051025;28;20037;-59
2022/09/08 05:16:21;;;;;;;1.25;0.10;;;24.70;54.90;;;;;;5049748;28;20041;-57
2022/09/08 05:18:50;;;;;;;2.10;0.00;;;24.80;55.00;;;;;;5050735;28;20174;-55
2022/09/08 05:21:18;;;;;;;1.23;0.10;;;24.90;54.90;;;;;;5049323;28;20041;-58
2022/09/08 05:23:45;;;;;;;1.42;0.10;;;24.90;54.80;;;;;;5051238;28;20366;-56
2022/09/08 05:26:14;;;;;;;3.30;0.00;;;24.90;54.70;;;;;;5049593;28;20037;-59
2022/09/08 05:28:42;;;;;;;2.60;0.10;;;24.90;54.60;;;;;;5049020;28;20817;-57
2022/09/08 05:31:14;;;;;;;1.17;0.10;;;24.90;54.50;;;;;;5053673;28;20040;-55
2022/09/08 05:33:42;;;;;;;0.47;0.00;;;25.00;54.40;;;;;;5034835;28;20040;-57
2022/09/08 05:36:11;;;;;;;1.33;0.00;;;25.00;54.40;;;;;;5049201;28;20047;-55
2022/09/08 05:38:39;;;;;;;1.95;0.10;;;25.10;54.30;;;;;;5048316;28;20043;-53
2022/09/08 05:41:07;;;;;;;1.65;0.10;;;25.10;54.20;;;;;;5045798;28;20037;-52
2022/09/08 05:43:34;;;;;;;0.30;0.10;;;25.10;53.90;;;;;;5046920;28;20386;-53
2022/09/08 05:46:01;;;;;;;2.50;0.00;;;25.20;53.90;;;;;;5057976;28;20036;-54
2022/09/08 05:48:30;;;;;;;1.02;0.20;;;25.30;53.80;;;;;;5031133;28;20057;-52
2022/09/08 05:50:58;;;;;;;0.77;0.40;;;25.30;53.70;;;;;;5042475;28;20065;-51
2022/09/08 05:53:25;;;;;;;2.83;0.00;;;25.30;53.70;;;;;;5041560;28;20056;-54
2022/09/08 05:55:58;;;;;;;2.05;0.03;;;25.30;54.10;;;;;;5051626;28;20064;-51
2022/09/08 05:58:25;;;;;;;1.42;0.13;;;25.30;53.50;;;;;;5047361;28;20067;-54
2022/09/08 06:00:57;;;;;;;4.13;0.52;;;25.40;53.50;;;;;;5041576;28;20143;-54
2022/09/08 06:03:25;;;;;;;0.75;0.20;;;25.40;53.30;;;;;;5041644;28;20041;-51
2022/09/08 06:05:54;;;;;;;2.33;0.35;;;25.40;53.30;;;;;;5043201;28;20553;-52
2022/09/08 06:08:21;;;;;;;4.20;0.17;;;25.40;53.30;;;;;;5044078;28;20060;-51
2022/09/08 06:10:52;;;;;;;1.27;0.10;;;25.40;53.30;;;;;;5044925;28;20033;-53
2022/09/08 06:13:21;;;;;;;1.95;0.10;;;25.40;53.20;;;;;;5044850;28;20182;-51
2022/09/08 06:15:48;;;;;;;1.92;0.10;;;25.50;53.30;;;;;;5039032;28;20715;-53
2022/09/08 06:18:16;;;;;;;2.00;0.38;;;25.50;53.20;;;;;;5043562;28;21309;-62
2022/09/08 06:20:44;;;;;;;3.38;0.08;;;25.50;53.10;;;;;;5046947;28;20120;-53
2022/09/08 06:23:12;;;;;;;0.32;0.00;;;25.40;53.10;;;;;;5049761;28;20052;-47
2022/09/08 06:25:41;;;;;;;3.45;0.75;;;25.50;53.20;;;;;;5047270;28;20485;-47
2022/09/08 06:28:24;;;;;;;1.98;0.20;;;25.50;53.10;;;;;;5043908;28;20921;-47
2022/09/08 06:30:54;;;;;;;2.35;0.30;;;25.50;53.00;;;;;;5048105;28;20068;-49
2022/09/08 06:33:28;;;;;;;2.33;0.10;;;25.50;53.10;;;;;;5048526;28;20051;-48
2022/09/08 06:36:02;;;;;;;2.47;0.10;;;25.50;53.00;;;;;;5049860;28;20077;-48
2022/09/08 06:38:35;;;;;;;6.75;0.85;;;25.50;52.90;;;;;;5050289;28;20838;-48
2022/09/08 06:41:10;;;;;;;1.02;0.10;;;25.60;52.90;;;;;;5049381;28;20047;-47
2022/09/08 06:43:42;;;;;;;4.07;0.10;;;25.60;52.90;;;;;;5046891;28;20578;-49
2022/09/08 06:46:20;;;;;;;3.17;0.10;;;25.60;52.80;;;;;;5048107;28;20033;-47
2022/09/08 06:48:47;;;;;;;3.40;0.30;;;25.60;52.70;;;;;;5044589;28;20040;-49
2022/09/08 06:51:36;;;;;;;2.97;0.20;;;25.60;52.70;;;;;;5049523;28;20033;-48
2022/09/08 06:54:19;;;;;;;8.45;3.28;;;25.60;52.60;;;;;;5053883;28;20083;-51
2022/09/08 06:56:56;;;;;;;24.15;7.03;;;25.60;53.10;;;;;;5050178;28;20517;-47
2022/09/08 06:59:39;;;;;;;20.88;5.32;;;25.60;53.90;;;;;;5050519;28;20048;-50
2022/09/08 07:02:20;;;;;;;12.88;2.90;;;25.70;53.80;;;;;;5052034;28;20416;-49
2022/09/08 07:04:54;;;;;;;9.23;3.63;;;25.70;53.80;;;;;;5049209;28;20037;-55
2022/09/08 07:07:25;;;;;;;16.17;3.67;;;25.70;53.90;;;;;;5044939;28;20083;-59
2022/09/08 07:10:03;;;;;;;8.80;2.70;;;25.70;54.20;;;;;;5047569;28;20044;-54
2022/09/08 07:12:42;;;;;;;16.92;3.05;;;25.70;54.20;;;;;;5049423;28;20045;-55
2022/09/08 07:15:22;;;;;;;6.47;1.75;;;25.80;54.30;;;;;;5048244;28;20052;-53
2022/09/08 07:17:52;;;;;;;13.13;2.17;;;25.70;53.90;;;;;;5048128;28;20171;-54
2022/09/08 07:20:20;;;;;;;9.70;2.92;;;25.80;54.00;;;;;;5041312;28;20102;-55
2022/09/08 07:22:51;;;;;;;6.20;1.40;;;25.80;53.70;;;;;;5041259;28;20553;-51
2022/09/08 07:25:25;;;;;;;8.98;1.15;;;25.80;53.50;;;;;;5047743;28;20128;-52
2022/09/08 07:27:59;;;;;;;7.68;1.98;;;25.80;53.30;;;;;;5047917;28;20048;-54
2022/09/08 07:30:26;;;;;;;8.60;2.05;;;25.80;53.10;;;;;;5048282;28;20510;-51
2022/09/08 07:32:59;;;;;;;5.60;1.50;;;25.80;53.00;;;;;;5048056;28;20635;-55
2022/09/08 07:35:42;;;;;;;4.85;1.42;;;25.80;52.80;;;;;;5047813;28;20036;-54
2022/09/08 07:38:15;;;;;;;10.45;2.58;;;25.80;53.30;;;;;;5047679;28;20152;-55
2022/09/08 07:40:46;;;;;;;5.35;1.00;;;25.80;52.70;;;;;;5047774;28;20540;-55
2022/09/08 07:43:16;;;;;;;6.35;0.63;;;25.70;52.50;;;;;;5033813;28;20069;-53
2022/09/08 07:45:48;;;;;;;6.80;0.80;;;25.80;52.40;;;;;;5048253;28;20037;-51
2022/09/08 07:48:31;;;;;;;6.18;0.52;;;25.80;52.40;;;;;;5047963;28;20740;-53
2022/09/08 07:51:08;;;;;;;7.65;0.60;;;25.80;52.30;;;;;;5051470;28;20075;-54
2022/09/08 07:54:11;;;;;;;8.15;0.73;;;25.70;52.10;;;;;;5048134;28;20045;-55
2022/09/08 07:56:43;;;;;;;3.25;0.85;;;25.80;52.00;;;;;;5041946;28;20056;-55
2022/09/08 07:59:20;;;;;;;6.78;0.80;;;25.70;52.00;;;;;;5048749;28;20045;-55
2022/09/08 08:01:56;;;;;;;3.95;0.30;;;25.70;51.90;;;;;;5048191;28;20041;-54
2022/09/08 08:04:42;;;;;;;3.17;0.40;;;25.70;52.40;;;;;;5051608;28;20056;-53
2022/09/08 08:07:14;;;;;;;3.03;0.65;;;25.80;51.90;;;;;;5053007;28;20040;-54
2022/09/08 08:09:49;;;;;;;7.45;1.30;;;25.70;51.80;;;;;;5041398;28;20128;-53
2022/09/08 08:12:24;;;;;;;4.33;1.00;;;25.70;51.70;;;;;;5047309;28;20129;-55
2022/09/08 08:14:59;;;;;;;4.78;0.50;;;25.70;51.60;;;;;;5047775;28;20283;-55
2022/09/08 08:17:42;;;;;;;3.00;0.30;;;25.70;51.60;;;;;;5051937;28;20639;-55
2022/09/08 08:20:25;;;;;;;7.57;0.68;;;25.70;51.50;;;;;;5055629;28;20076;-56
2022/09/08 08:23:09;;;;;;;4.32;0.30;;;25.80;51.50;;;;;;5051710;28;20040;-55
2022/09/08 08:25:41;;;;;;;3.30;0.32;;;25.70;51.40;;;;;;5051594;28;20132;-55
2022/09/08 08:28:16;;;;;;;2.10;0.40;;;25.70;51.40;;;;;;5054800;28;20529;-53
2022/09/08 08:30:54;;;;;;;1.97;0.20;;;25.80;51.30;;;;;;5053301;28;20058;-53
2022/09/08 08:33:27;;;;;;;5.15;0.35;;;25.70;51.30;;;;;;5051875;28;20722;-55
2022/09/08 08:35:57;;;;;;;3.78;0.43;;;25.70;51.20;;;;;;5054607;28;20037;-56
2022/09/08 08:38:29;;;;;;;2.20;0.50;;;25.70;51.20;;;;;;5044379;28;20177;-55
2022/09/08 08:40:57;;;;;;;3.08;0.55;;;25.70;51.20;;;;;;5050984;28;20111;-56
2022/09/08 08:44:05;;;;;;;4.03;0.20;;;25.70;51.10;;;;;;5051150;28;20033;-55
2022/09/08 08:47:04;;;;;;;1.20;0.10;;;25.80;51.10;;;;;;4970061;28;20149;-54
2022/09/08 08:50:15;;;;;;;2.83;0.22;;;25.80;51.10;;;;;;4906010;29;20636;-55
2022/09/08 08:53:05;;;;;;;2.83;0.82;;;25.80;50.90;;;;;;4847634;29;20195;-55
2022/09/08 08:55:44;;;;;;;3.40;0.40;;;25.70;50.90;;;;;;4855654;29;20081;-55
2022/09/08 08:58:50;;;;;;;2.53;0.30;;;25.70;50.90;;;;;;4849737;29;20050;-51
2022/09/08 09:01:47;;;;;;;5.75;0.45;;;25.80;50.80;;;;;;4830632;29;20162;-53
2022/09/08 09:04:34;;;;;;;1.45;0.20;;;25.80;50.80;;;;;;4846283;29;20587;-52
2022/09/08 09:07:35;;;;;;;3.35;0.40;;;25.80;50.70;;;;;;4839971;29;20054;-53
2022/09/08 09:10:26;;;;;;;6.13;0.32;;;25.80;50.70;;;;;;4855584;29;20089;-52
2022/09/08 09:13:16;;;;;;;4.63;0.22;;;25.80;50.70;;;;;;4841969;29;20050;-54
2022/09/08 09:16:01;;;;;;;6.82;0.30;;;25.80;50.60;;;;;;4849068;29;20073;-56
2022/09/08 09:19:00;;;;;;;3.38;0.30;;;25.80;50.60;;;;;;4851059;29;20050;-55
2022/09/08 09:21:42;;;;;;;0.98;0.57;;;25.80;50.50;;;;;;4857850;29;20047;-55
2022/09/08 09:24:15;;;;;;;2.20;0.68;;;25.80;50.40;;;;;;4927382;29;20047;-54
2022/09/08 09:26:49;;;;;;;3.70;0.65;;;25.80;50.40;;;;;;4944235;28;20100;-53
2022/09/08 09:29:21;;;;;;;2.20;0.65;;;25.80;50.40;;;;;;5043044;28;20505;-54
2022/09/08 09:32:21;;;;;;;2.85;0.20;;;25.80;50.30;;;;;;5043879;28;20068;-54
2022/09/08 09:35:14;;;;;;;4.05;0.68;;;25.90;50.30;;;;;;5049714;28;20061;-54
2022/09/08 09:38:10;;;;;;;3.30;0.25;;;25.90;50.30;;;;;;5050204;28;20044;-52
2022/09/08 09:41:06;;;;;;;1.10;0.20;;;25.90;50.20;;;;;;5049893;28;20049;-55
2022/09/08 09:43:48;;;;;;;0.88;0.10;;;25.90;50.20;;;;;;5045986;28;20053;-52
2022/09/08 09:46:34;;;;;;;1.98;0.17;;;25.90;50.20;;;;;;5050301;28;20033;-56
2022/09/08 09:49:22;;;;;;;2.07;0.23;;;25.90;50.10;;;;;;5036461;28;20041;-54
2022/09/08 09:52:03;;;;;;;5.53;0.70;;;26.00;50.20;;;;;;5051778;28;20091;-56
2022/09/08 09:54:55;;;;;;;2.33;0.10;;;26.00;50.10;;;;;;5050801;28;20045;-54
2022/09/08 09:58:08;;;;;;;4.63;0.55;;;26.00;50.00;;;;;;5042994;28;20045;-53
2022/09/08 10:01:01;;;;;;;3.22;1.20;;;26.00;50.00;;;;;;5036177;28;20135;-53
2022/09/08 10:04:05;;;;;;;1.52;0.30;;;25.90;50.00;;;;;;5053008;28;20462;-51
2022/09/08 10:06:50;;;;;;;2.53;0.20;;;26.00;50.00;;;;;;5049872;28;20075;-54
2022/09/08 10:10:08;;;;;;;3.30;0.15;;;25.90;50.00;;;;;;5049491;28;20045;-55
2022/09/08 10:13:13;;;;;;;1.33;0.10;;;26.00;50.00;;;;;;5056016;28;20521;-55
2022/09/08 10:16:06;;;;;;;2.00;0.20;;;26.00;50.00;;;;;;5050339;28;20052;-57
2022/09/08 10:19:05;;;;;;;2.00;0.43;;;26.00;50.00;;;;;;5051561;28;20051;-56
2022/09/08 10:22:23;;;;;;;4.53;0.70;;;26.00;50.00;;;;;;5049363;28;20124;-54
2022/09/08 10:25:21;;;;;;;0.50;0.22;;;26.00;50.10;;;;;;4983941;28;20093;-54
2022/09/08 10:28:15;;;;;;;2.33;0.55;;;26.00;50.00;;;;;;4992129;28;20129;-54
2022/09/08 10:31:06;;;;;;;0.80;0.20;;;26.00;50.00;;;;;;4972026;28;20054;-53
2022/09/08 10:34:06;;;;;;;1.17;0.13;;;26.00;50.00;;;;;;4987888;28;20101;-54
2022/09/08 10:36:56;;;;;;;3.10;0.20;;;26.10;50.10;;;;;;4987373;28;20043;-53
2022/09/08 10:39:39;;;;;;;2.17;0.20;;;26.10;50.10;;;;;;4992312;28;20574;-51
2022/09/08 10:42:30;;;;;;;2.00;0.10;;;26.10;50.10;;;;;;4987066;28;20077;-55
2022/09/08 10:45:19;;;;;;;1.42;0.10;;;26.10;50.10;;;;;;4991408;28;20070;-54
2022/09/08 10:48:19;;;;;;;1.85;0.20;;;26.20;50.10;;;;;;4996424;28;20043;-54
2022/09/08 10:50:51;;;;;;;2.55;0.30;;;26.20;50.10;;;;;;4986750;28;20054;-54
2022/09/08 10:53:45;;;;;;;1.20;0.50;;;26.20;50.10;;;;;;4990565;28;20042;-55
2022/09/08 10:56:14;;;;;;;2.65;0.10;;;26.20;50.10;;;;;;4986973;28;20055;-54
2022/09/08 10:59:16;;;;;;;2.03;0.40;;;26.20;50.10;;;;;;4993140;28;20156;-53
2022/09/08 11:02:22;;;;;;;2.53;0.63;;;26.30;50.00;;;;;;5044321;28;20529;-55
2022/09/08 11:05:22;;;;;;;3.60;0.25;;;26.30;50.00;;;;;;5048025;28;20575;-54
2022/09/08 11:08:30;;;;;;;0.63;0.10;;;26.30;49.90;;;;;;5048880;28;20152;-54
2022/09/08 11:11:45;;;;;;;2.80;0.20;;;26.30;49.80;;;;;;5048462;28;20044;-55
2022/09/08 11:14:42;;;;;;;5.80;0.35;;;26.30;49.70;;;;;;4983429;28;20046;-53
2022/09/08 11:17:22;;;;;;;0.63;0.10;;;26.40;49.80;;;;;;4986282;28;20073;-54
2022/09/08 11:19:51;;;;;;;2.40;0.10;;;26.40;49.70;;;;;;4986822;28;20054;-55
2022/09/08 11:22:51;;;;;;;2.35;0.10;;;26.40;49.60;;;;;;4986651;28;20145;-55
2022/09/08 11:25:43;;;;;;;2.28;0.43;;;26.50;49.60;;;;;;4986018;28;20289;-52
2022/09/08 11:28:19;;;;;;;3.80;0.00;;;26.50;49.50;;;;;;4984150;28;20097;-55
2022/09/08 11:31:00;;;;;;;0.40;0.40;;;26.50;49.50;;;;;;4985936;28;20073;-54
2022/09/08 11:33:56;;;;;;;1.55;0.10;;;26.50;49.40;;;;;;4980086;28;20066;-55
2022/09/08 11:36:49;;;;;;;0.60;0.10;;;26.60;49.30;;;;;;4983923;28;20061;-54
2022/09/08 11:39:31;;;;;;;0.73;0.10;;;26.60;49.30;;;;;;4989658;28;20093;-55
2022/09/08 11:42:36;;;;;;;0.80;0.10;;;26.60;49.30;;;;;;4985913;28;20089;-53
2022/09/08 11:45:17;;;;;;;3.22;0.55;;;26.60;49.20;;;;;;5008207;28;20060;-55
2022/09/08 11:48:04;;;;;;;1.75;0.05;;;26.60;49.10;;;;;;5048541;28;20037;-54
2022/09/08 11:50:56;;;;;;;2.15;0.30;;;26.70;49.10;;;;;;5050907;28;20604;-55
2022/09/08 11:53:59;;;;;;;2.53;0.10;;;26.70;49.10;;;;;;5050459;28;20679;-55
2022/09/08 11:56:56;;;;;;;1.63;0.20;;;26.70;49.00;;;;;;5045690;28;20068;-55
2022/09/08 12:00:00;;;;;;;1.13;0.08;;;26.60;48.90;;;;;;5052825;28;20048;-53
2022/09/08 12:02:49;;;;;;;3.25;0.20;;;26.70;48.90;;;;;;5054779;28;20512;-54
2022/09/08 12:05:29;;;;;;;0.55;0.20;;;26.70;48.90;;;;;;5051416;28;20045;-55
2022/09/08 12:08:33;;;;;;;0.38;0.20;;;26.80;48.90;;;;;;5056488;28;20045;-55
2022/09/08 12:11:13;;;;;;;1.63;0.68;;;26.90;48.90;;;;;;5055002;28;20145;-54
2022/09/08 12:13:46;;;;;;;0.20;0.10;;;26.80;48.80;;;;;;5051495;28;20060;-55
2022/09/08 12:16:39;;;;;;;1.15;0.00;;;26.90;48.80;;;;;;5045626;28;20065;-54
2022/09/08 12:19:30;;;;;;;1.73;0.20;;;27.00;48.80;;;;;;5051667;28;20136;-51
2022/09/08 12:22:17;;;;;;;2.30;0.10;;;27.00;48.70;;;;;;5051878;28;20041;-54
2022/09/08 12:25:07;;;;;;;1.20;0.30;;;27.00;48.70;;;;;;5031449;28;20406;-54
2022/09/08 12:27:47;;;;;;;0.75;0.10;;;27.00;48.60;;;;;;5051921;28;20144;-54
2022/09/08 12:30:19;;;;;;;1.40;0.00;;;27.00;48.60;;;;;;5054935;28;20045;-56
2022/09/08 12:33:10;;;;;;;0.63;0.03;;;27.00;48.50;;;;;;5051596;28;20033;-56
2022/09/08 12:35:42;;;;;;;0.65;0.00;;;27.00;48.40;;;;;;5055413;28;20033;-54
2022/09/08 12:38:45;;;;;;;2.63;0.10;;;27.00;48.40;;;;;;5054075;28;20068;-54
2022/09/08 12:41:50;;;;;;;2.20;0.20;;;27.10;48.30;;;;;;5047980;28;20036;-56
2022/09/08 12:44:30;;;;;;;2.80;0.10;;;27.10;48.20;;;;;;5039103;28;20135;-55
2022/09/08 12:47:16;;;;;;;3.22;0.20;;;27.10;48.20;;;;;;5051210;28;20067;-56
2022/09/08 12:50:12;;;;;;;3.53;0.15;;;27.10;48.10;;;;;;5054493;28;20138;-55
2022/09/08 12:52:56;;;;;;;2.40;0.68;;;27.10;48.10;;;;;;5047509;28;20057;-55
2022/09/08 12:55:30;;;;;;;0.40;0.10;;;27.10;48.10;;;;;;5050966;28;20120;-55
2022/09/08 12:58:01;;;;;;;0.93;0.10;;;27.10;48.00;;;;;;5056616;28;20493;-54
2022/09/08 13:00:34;;;;;;;0.43;0.10;;;27.10;48.00;;;;;;5050827;28;20095;-55
2022/09/08 13:03:19;;;;;;;0.47;0.13;;;27.20;48.00;;;;;;5052404;28;20065;-54
2022/09/08 13:06:27;;;;;;;2.63;0.17;;;27.30;48.10;;;;;;5046268;28;20033;-54
2022/09/08 13:08:58;;;;;;;3.00;0.08;;;27.30;48.00;;;;;;5045312;28;20083;-51
2022/09/08 13:12:04;;;;;;;0.63;0.10;;;27.30;48.10;;;;;;5046000;28;20136;-54
2022/09/08 13:14:50;;;;;;;1.20;0.10;;;27.40;48.00;;;;;;5034111;28;20060;-52
2022/09/08 13:17:21;;;;;;;;;;;27.40;48.00;;;;;;5047009;28;20040;-51
2022/09/08 13:20:11;;;;;;;0.82;0.10;;;27.40;48.10;;;;;;5055892;28;20359;-53
2022/09/08 13:22:49;;;;;;;1.60;0.45;;;27.40;48.10;;;;;;5046550;28;20072;-54
2022/09/08 13:25:23;;;;;;;0.75;0.32;;;27.50;48.10;;;;;;5053129;28;20128;-54
2022/09/08 13:28:24;;;;;;;0.93;0.25;;;27.60;48.00;;;;;;5038406;28;20040;-53
2022/09/08 13:31:03;;;;;;;2.22;0.75;;;27.60;47.90;;;;;;5050396;28;20167;-50
2022/09/08 13:33:58;;;;;;;1.92;0.10;;;27.60;47.80;;;;;;5051937;28;20148;-55
2022/09/08 13:36:38;;;;;;;0.98;0.08;;;27.70;47.80;;;;;;5048204;28;20049;-55
2022/09/08 13:39:35;;;;;;;0.95;0.10;;;27.70;47.70;;;;;;5054458;28;20226;-52
2022/09/08 13:42:25;;;;;;;0.20;0.10;;;27.70;47.60;;;;;;5034865;28;20529;-53
2022/09/08 13:45:25;;;;;;;0.73;0.10;;;27.70;47.50;;;;;;5055673;28;20033;-54